Time;durP1;ratioP1;P1;durP2;ratioP2;P2;SDS_P1;SDS_P2;PMS_P1;PMS_P2;Temp;Humidity;BMP_temperature;BMP_pressure;BME280_temperature;BME280_humidity;BME280_pressure;Samples;Min_cycle;Max_cycle;Signal;HPM_P1;HPM_P2
2023/06/04 00:02:25;;;;;;;1.67;1.52;;;;;;;7.92;100.00;98803.94;5160299;27;20054;-63
2023/06/04 00:04:51;;;;;;;2.45;1.48;;;;;;;7.79;100.00;98797.78;5159936;27;20416;-63
2023/06/04 00:07:17;;;;;;;7.03;1.58;;;;;;;7.76;100.00;98786.78;5160268;27;20133;-54
2023/06/04 00:09:43;;;;;;;2.13;1.60;;;;;;;7.73;100.00;98793.78;5159773;27;20082;-57
2023/06/04 00:12:09;;;;;;;2.15;1.50;;;;;;;7.68;100.00;98796.78;5160265;27;20102;-59
2023/06/04 00:14:35;;;;;;;1.50;1.40;;;;;;;7.77;100.00;98793.88;5160003;27;20115;-64
2023/06/04 00:17:01;;;;;;;1.90;1.80;;;;;;;7.76;100.00;98792.25;5160240;27;20358;-60
2023/06/04 00:19:28;;;;;;;5.75;2.88;;;;;;;7.70;100.00;98794.50;5159852;27;20423;-56
2023/06/04 00:21:55;;;;;;;5.22;1.70;;;;;;;7.65;100.00;98789.28;5160061;27;20047;-59
2023/06/04 00:24:20;;;;;;;2.15;1.55;;;;;;;7.64;100.00;98790.44;5160005;27;20135;-57
2023/06/04 00:26:47;;;;;;;2.85;1.65;;;;;;;7.57;100.00;98798.47;5160140;27;20141;-54
2023/06/04 00:29:12;;;;;;;3.70;1.55;;;;;;;7.45;100.00;98804.78;5159495;27;20141;-59
2023/06/04 00:31:38;;;;;;;3.67;1.70;;;;;;;7.52;100.00;98812.34;5159949;27;20046;-62
2023/06/04 00:34:04;;;;;;;3.05;1.58;;;;;;;7.46;100.00;98816.50;5159853;27;20043;-64
2023/06/04 00:36:31;;;;;;;9.32;2.00;;;;;;;7.40;100.00;98826.09;5159662;27;20051;-56
2023/06/04 00:38:57;;;;;;;1.95;1.67;;;;;;;7.39;100.00;98844.38;5159748;27;20086;-57
2023/06/04 00:41:23;;;;;;;2.70;2.00;;;;;;;7.41;100.00;98833.91;5159629;27;20093;-53
2023/06/04 00:43:55;;;;;;;2.53;1.65;;;;;;;7.31;100.00;98850.81;5159638;27;20455;-55
2023/06/04 00:46:21;;;;;;;2.95;1.77;;;;;;;7.37;100.00;98862.25;5159380;27;20412;-56
2023/06/04 00:48:47;;;;;;;6.30;1.85;;;;;;;7.29;100.00;98845.69;5159608;27;20106;-54
2023/06/04 00:51:13;;;;;;;3.13;1.65;;;;;;;7.28;100.00;98856.97;5158251;27;20137;-59
2023/06/04 00:53:40;;;;;;;3.00;2.00;;;;;;;7.25;100.00;98852.19;5159669;27;20057;-65
2023/06/04 00:56:06;;;;;;;3.10;1.70;;;;;;;7.22;100.00;98869.25;5159204;27;20483;-64
2023/06/04 00:58:33;;;;;;;4.93;1.48;;;;;;;7.21;100.00;98878.59;5159616;27;20054;-62
2023/06/04 01:01:04;;;;;;;2.10;1.85;;;;;;;7.12;100.00;98892.38;5159150;27;20540;-63
2023/06/04 01:03:35;;;;;;;2.20;1.40;;;;;;;7.05;100.00;98897.63;5159334;27;20391;-54
2023/06/04 01:06:10;;;;;;;2.95;1.77;;;;;;;7.02;100.00;98909.22;5159418;27;20157;-63
2023/06/04 01:08:37;;;;;;;3.40;1.63;;;;;;;6.98;100.00;98922.75;5159295;27;20051;-56
2023/06/04 01:11:03;;;;;;;4.53;1.90;;;;;;;6.95;100.00;98922.66;5159268;27;20492;-64
2023/06/04 01:13:29;;;;;;;7.13;1.60;;;;;;;6.90;100.00;98955.59;5159050;27;20130;-61
2023/06/04 01:15:55;;;;;;;6.53;1.92;;;;;;;6.97;100.00;98970.22;5159150;27;20047;-63
2023/06/04 01:18:27;;;;;;;2.45;1.63;;;;;;;6.90;100.00;98978.22;5158956;27;20141;-63
2023/06/04 01:20:57;;;;;;;2.47;1.60;;;;;;;6.89;100.00;98978.53;5159292;27;20054;-64
2023/06/04 01:23:34;;;;;;;7.30;1.83;;;;;;;6.82;100.00;98998.97;5158978;27;20145;-65
2023/06/04 01:26:02;;;;;;;2.95;1.80;;;;;;;6.77;100.00;99042.81;5158972;27;20056;-64
2023/06/04 01:28:30;;;;;;;1.98;1.42;;;;;;;6.77;100.00;99047.47;5158692;27;20060;-63
2023/06/04 01:30:56;;;;;;;2.33;1.60;;;;;;;6.76;100.00;99078.56;5158861;27;20137;-60
2023/06/04 01:33:23;;;;;;;3.45;2.00;;;;;;;6.77;100.00;99074.72;5159123;27;20057;-55
2023/06/04 01:35:49;;;;;;;3.25;1.67;;;;;;;6.71;100.00;99082.31;5158799;27;20335;-62
2023/06/04 01:38:15;;;;;;;2.95;1.70;;;;;;;6.71;100.00;99098.69;5159040;27;20404;-54
2023/06/04 01:40:41;;;;;;;4.00;1.77;;;;;;;6.54;100.00;99102.41;5158747;27;20111;-59
2023/06/04 01:43:07;;;;;;;3.58;1.70;;;;;;;6.56;100.00;99121.94;5159182;27;20059;-64
2023/06/04 01:45:34;;;;;;;3.70;1.92;;;;;;;6.60;100.00;99132.97;5158459;27;20489;-53
2023/06/04 01:48:02;;;;;;;2.55;1.95;;;;;;;6.55;100.00;99146.78;5158781;27;20429;-53
2023/06/04 01:50:28;;;;;;;1.67;1.58;;;;;;;6.56;100.00;99153.81;5158927;27;20072;-57
2023/06/04 01:52:54;;;;;;;3.42;1.80;;;;;;;6.53;100.00;99152.59;5158379;27;20471;-55
2023/06/04 01:55:21;;;;;;;3.55;1.73;;;;;;;6.52;100.00;99159.16;5158288;27;20047;-66
2023/06/04 01:57:47;;;;;;;7.47;2.08;;;;;;;6.51;100.00;99173.13;5158334;27;20060;-55
2023/06/04 02:00:14;;;;;;;3.28;1.92;;;;;;;6.55;100.00;99165.84;5158418;27;20320;-59
2023/06/04 02:02:42;;;;;;;2.13;1.65;;;;;;;6.46;100.00;99178.75;5158098;27;20141;-55
2023/06/04 02:05:09;;;;;;;3.45;1.80;;;;;;;6.47;100.00;99189.34;5158408;27;20521;-64
2023/06/04 02:07:38;;;;;;;4.20;2.42;;;;;;;6.44;100.00;99192.72;5158129;27;20133;-64
2023/06/04 02:10:05;;;;;;;2.75;2.20;;;;;;;6.41;100.00;99201.56;5158458;27;20063;-54
2023/06/04 02:12:31;;;;;;;4.75;1.80;;;;;;;6.39;100.00;99217.44;5158028;27;20511;-62
2023/06/04 02:14:56;;;;;;;4.28;2.33;;;;;;;6.44;100.00;99230.84;5158439;27;20051;-62
2023/06/04 02:17:22;;;;;;;4.68;2.13;;;;;;;6.45;100.00;99242.53;5158190;27;20078;-64
2023/06/04 02:19:49;;;;;;;3.17;2.05;;;;;;;6.49;100.00;99248.91;5157909;27;20507;-63
2023/06/04 02:22:16;;;;;;;9.05;2.30;;;;;;;6.57;100.00;99251.56;5158127;27;20069;-54
2023/06/04 02:24:42;;;;;;;5.47;2.30;;;;;;;7.01;100.00;99224.63;5157972;27;20340;-63
2023/06/04 02:27:08;;;;;;;4.18;2.05;;;;;;;7.45;100.00;99123.13;5158233;27;20075;-56
2023/06/04 02:29:35;;;;;;;4.03;2.38;;;;;;;7.75;100.00;99008.97;5157853;27;20055;-56
2023/06/04 02:32:01;;;;;;;5.45;2.45;;;;;;;8.01;100.00;98913.72;5157994;27;20050;-56
2023/06/04 02:34:27;;;;;;;7.65;1.98;;;;;;;8.43;100.00;98865.91;5157673;27;20483;-55
2023/06/04 02:36:54;;;;;;;3.75;1.92;;;;;;;8.67;100.00;98840.28;5157920;27;20051;-58
2023/06/04 02:39:20;;;;;;;4.97;2.30;;;;;;;8.92;100.00;98851.69;5158017;27;20051;-59
2023/06/04 02:41:46;;;;;;;11.18;2.13;;;;;;;9.26;100.00;98871.06;5158052;27;20057;-60
2023/06/04 02:44:12;;;;;;;3.72;2.28;;;;;;;9.47;100.00;98906.25;5157605;27;20137;-64
2023/06/04 02:46:39;;;;;;;4.85;2.00;;;;;;;9.81;100.00;98940.09;5157840;27;20137;-56
2023/06/04 02:49:05;;;;;;;3.60;1.92;;;;;;;9.87;100.00;98963.28;5157511;27;20464;-65
2023/06/04 02:51:32;;;;;;;9.13;2.78;;;;;;;10.16;100.00;99005.59;5157494;27;20145;-55
2023/06/04 02:53:59;;;;;;;3.00;1.90;;;;;;;10.24;100.00;99029.25;5157882;27;20119;-64
2023/06/04 02:56:25;;;;;;;3.08;1.80;;;;;;;10.58;100.00;99067.81;5157627;27;20065;-64
2023/06/04 02:58:52;;;;;;;5.97;1.88;;;;;;;10.92;100.00;99098.88;5157545;27;20468;-60
2023/06/04 03:01:19;;;;;;;2.60;1.77;;;;;;;10.82;100.00;99135.16;5157683;27;20046;-57
2023/06/04 03:03:45;;;;;;;3.00;1.67;;;;;;;11.17;100.00;99167.06;5157667;27;20131;-65
2023/06/04 03:06:14;;;;;;;3.15;1.50;;;;;;;11.38;100.00;99200.31;5157611;27;20134;-59
2023/06/04 03:08:40;;;;;;;2.78;1.70;;;;;;;11.48;100.00;99213.41;5157723;27;20047;-56
2023/06/04 03:11:07;;;;;;;3.05;1.70;;;;;;;11.88;100.00;99238.72;5157288;27;20440;-55
2023/06/04 03:13:33;;;;;;;4.05;1.90;;;;;;;11.93;100.00;99246.66;5158178;27;20280;-59
2023/06/04 03:16:00;;;;;;;3.13;1.85;;;;;;;12.25;100.00;99266.28;5161056;27;20043;-64
2023/06/04 03:18:26;;;;;;;2.13;1.52;;;;;;;12.45;100.00;99297.97;5160998;27;20446;-54
2023/06/04 03:20:53;;;;;;;2.15;1.80;;;;;;;12.42;100.00;99314.41;5161029;27;20051;-58
2023/06/04 03:23:19;;;;;;;2.65;1.60;;;;;;;12.97;100.00;99331.19;5160871;27;20137;-55
2023/06/04 03:25:45;;;;;;;4.10;1.50;;;;;;;13.34;100.00;99355.97;5160956;27;20070;-59
2023/06/04 03:28:12;;;;;;;5.30;2.15;;;;;;;13.46;100.00;99376.94;5160671;27;20043;-57
2023/06/04 03:30:40;;;;;;;2.67;1.60;;;;;;;13.57;100.00;99388.84;5160799;27;20411;-54
2023/06/04 03:33:06;;;;;;;2.13;1.65;;;;;;;13.86;100.00;99403.69;5160480;27;20476;-62
2023/06/04 03:35:32;;;;;;;4.85;1.70;;;;;;;14.18;100.00;99422.41;5160927;27;20046;-65
2023/06/04 03:37:57;;;;;;;2.58;1.33;;;;;;;14.27;100.00;99425.66;5160439;27;20400;-63
2023/06/04 03:40:23;;;;;;;5.15;2.05;;;;;;;14.50;100.00;99455.78;5160358;27;20054;-60
2023/06/04 03:42:49;;;;;;;2.28;1.40;;;;;;;14.76;100.00;99453.94;5160509;27;20386;-55
2023/06/04 03:45:16;;;;;;;2.28;1.40;;;;;;;15.04;100.00;99465.16;5160800;27;20129;-56
2023/06/04 03:47:42;;;;;;;2.42;1.42;;;;;;;15.07;100.00;99480.16;5160319;27;20356;-63
2023/06/04 03:50:09;;;;;;;2.83;1.40;;;;;;;15.15;100.00;99480.97;5160392;27;20146;-62
2023/06/04 03:52:35;;;;;;;1.50;1.40;;;;;;;15.50;100.00;99488.59;5160548;27;20349;-63
2023/06/04 03:55:01;;;;;;;2.08;1.50;;;;;;;15.85;100.00;99492.66;5160332;27;20051;-60
2023/06/04 03:57:27;;;;;;;2.60;1.40;;;;;;;16.26;100.00;99511.66;5160529;27;20051;-65
2023/06/04 03:59:53;;;;;;;7.63;1.77;;;;;;;16.22;100.00;99515.22;5160446;27;20065;-57
2023/06/04 04:02:20;;;;;;;3.30;1.83;;;;;;;16.46;100.00;99526.69;5160520;27;20402;-55
2023/06/04 04:04:46;;;;;;;2.78;1.60;;;;;;;16.74;100.00;99531.41;5160009;27;20137;-55
2023/06/04 04:07:12;;;;;;;3.88;2.45;;;;;;;17.20;100.00;99527.78;5160000;27;20046;-52
2023/06/04 04:09:38;;;;;;;8.57;1.63;;;;;;;17.45;100.00;99540.75;5159820;27;20057;-53
2023/06/04 04:12:04;;;;;;;5.75;1.52;;;;;;;17.69;100.00;99550.94;5160334;27;20051;-58
2023/06/04 04:14:30;;;;;;;4.30;1.52;;;;;;;17.76;97.12;99559.28;5160108;27;20126;-59
2023/06/04 04:16:56;;;;;;;2.00;1.50;;;;;;;18.13;91.94;99568.16;5160050;27;20328;-64
2023/06/04 04:19:23;;;;;;;2.85;1.40;;;;;;;18.58;85.46;99577.34;5160129;27;20086;-64
2023/06/04 04:21:49;;;;;;;1.35;0.90;;;;;;;18.58;86.00;99577.34;5159709;27;20138;-64
2023/06/04 04:24:22;;;;;;;2.40;1.30;;;;;;;19.03;82.46;99580.97;5160113;27;20111;-63
2023/06/04 04:26:52;;;;;;;4.80;1.48;;;;;;;19.33;77.63;99595.34;5159563;27;20137;-55
2023/06/04 04:29:22;;;;;;;1.45;1.20;;;;;;;19.33;73.94;99593.34;5159986;27;20054;-56
2023/06/04 04:31:49;;;;;;;4.85;1.33;;;;;;;19.23;79.11;99592.28;5159576;27;20110;-55
2023/06/04 04:34:15;;;;;;;3.53;1.20;;;;;;;19.45;77.56;99597.59;5160620;27;20078;-54
2023/06/04 04:36:41;;;;;;;4.57;1.27;;;;;;;19.62;69.79;99606.91;5159448;27;20058;-64
2023/06/04 04:39:07;;;;;;;4.00;1.45;;;;;;;20.03;68.94;99604.06;5159902;27;20422;-58
2023/06/04 04:41:33;;;;;;;2.35;0.90;;;;;;;20.12;66.75;99600.75;5159703;27;20100;-60
2023/06/04 04:44:03;;;;;;;4.05;1.40;;;;;;;19.99;65.89;99597.72;5159817;27;20134;-57
2023/06/04 04:46:29;;;;;;;6.93;1.38;;;;;;;20.14;66.87;99610.25;5159599;27;20137;-58
2023/06/04 04:48:55;;;;;;;1.33;1.15;;;;;;;20.42;65.33;99608.25;5159338;27;20051;-56
2023/06/04 04:51:21;;;;;;;6.18;1.17;;;;;;;20.29;64.16;99610.81;5159473;27;20471;-53
2023/06/04 04:53:48;;;;;;;4.15;1.63;;;;;;;20.12;64.52;99612.66;5159353;27;20058;-63
2023/06/04 04:56:14;;;;;;;2.25;1.10;;;;;;;20.20;64.81;99603.03;5159658;27;20146;-65
2023/06/04 04:58:40;;;;;;;4.53;1.33;;;;;;;20.82;63.82;99600.09;5159353;27;20335;-55
2023/06/04 05:01:06;;;;;;;4.20;1.00;;;;;;;20.77;63.82;99603.38;5159530;27;20047;-60
2023/06/04 05:03:32;;;;;;;1.63;1.10;;;;;;;20.98;63.52;99610.59;5159008;27;20053;-58
2023/06/04 05:05:58;;;;;;;2.97;1.23;;;;;;;21.22;61.64;99602.97;5159497;27;20043;-61
2023/06/04 05:08:24;;;;;;;2.33;1.30;;;;;;;21.34;60.90;99610.72;5158836;27;20131;-64
2023/06/04 05:10:51;;;;;;;2.60;1.10;;;;;;;20.85;61.89;99604.81;5158842;27;20047;-63
2023/06/04 05:13:17;;;;;;;3.03;1.50;;;;;;;21.61;62.14;99605.03;5159200;27;20046;-64
2023/06/04 05:15:43;;;;;;;5.93;1.20;;;;;;;21.56;61.72;99606.34;5159250;27;20058;-53
2023/06/04 05:18:09;;;;;;;3.47;1.65;;;;;;;22.17;59.92;99607.09;5159131;27;20061;-61
2023/06/04 05:20:37;;;;;;;5.55;1.48;;;;;;;22.07;60.05;99617.25;5158958;27;20137;-64
2023/06/04 05:23:04;;;;;;;4.97;1.05;;;;;;;22.41;59.44;99618.91;5159164;27;20244;-54
2023/06/04 05:25:31;;;;;;;2.88;0.90;;;;;;;22.58;58.22;99620.50;5158616;27;20099;-56
2023/06/04 05:27:57;;;;;;;0.88;0.80;;;;;;;22.38;57.62;99611.41;5158965;27;20046;-59
2023/06/04 05:30:23;;;;;;;5.28;1.00;;;;;;;22.27;58.71;99615.22;5158520;27;20520;-59
2023/06/04 05:32:50;;;;;;;1.63;1.10;;;;;;;22.78;58.16;99617.63;5158449;27;20087;-61
2023/06/04 05:35:16;;;;;;;3.10;1.35;;;;;;;22.73;57.28;99623.75;5158427;27;20141;-58
2023/06/04 05:37:45;;;;;;;3.47;1.30;;;;;;;22.72;57.82;99617.34;5158062;27;20061;-63
2023/06/04 05:40:12;;;;;;;3.38;1.33;;;;;;;23.27;56.15;99612.00;5158362;27;20050;-63
2023/06/04 05:42:38;;;;;;;1.30;1.20;;;;;;;23.22;55.84;99626.50;5158592;27;20058;-56
2023/06/04 05:45:08;;;;;;;1.85;1.38;;;;;;;23.67;55.24;99611.72;5158623;27;20089;-58
2023/06/04 05:47:34;;;;;;;2.00;1.17;;;;;;;23.20;55.12;99609.41;5158400;27;20054;-56
2023/06/04 05:50:00;;;;;;;14.35;1.77;;;;;;;23.10;55.06;99604.88;5158440;27;20532;-56
2023/06/04 05:52:26;;;;;;;5.03;1.60;;;;;;;23.13;54.92;99618.00;5158316;27;20054;-53
2023/06/04 05:54:52;;;;;;;2.83;1.10;;;;;;;23.37;55.73;99607.34;5158427;27;20187;-54
2023/06/04 05:57:18;;;;;;;1.15;1.02;;;;;;;23.58;54.88;99611.56;5158023;27;20414;-60
2023/06/04 05:59:44;;;;;;;2.03;1.20;;;;;;;23.36;54.08;99609.38;5158492;27;20085;-59
2023/06/04 06:02:12;;;;;;;2.75;1.27;;;;;;;23.21;54.13;99605.38;5158036;27;20061;-57
2023/06/04 06:04:38;;;;;;;3.90;1.17;;;;;;;23.16;53.67;99605.94;5158530;27;20311;-54
2023/06/04 06:07:04;;;;;;;2.10;1.00;;;;;;;23.05;54.67;99608.97;5158229;27;20392;-60
2023/06/04 06:09:30;;;;;;;1.30;1.20;;;;;;;23.68;52.99;99604.91;5158370;27;20055;-61
2023/06/04 06:11:56;;;;;;;0.80;0.73;;;;;;;24.16;52.26;99606.69;5158323;27;20133;-64
2023/06/04 06:14:23;;;;;;;2.97;1.00;;;;;;;24.46;52.12;99604.59;5158063;27;20423;-64
2023/06/04 06:16:49;;;;;;;5.70;1.10;;;;;;;24.57;51.84;99595.84;5158176;27;20046;-63
2023/06/04 06:19:16;;;;;;;3.47;1.10;;;;;;;24.94;51.49;99611.00;5157857;27;20172;-59
2023/06/04 06:21:42;;;;;;;5.75;1.30;;;;;;;24.75;50.40;99604.44;5158593;27;20046;-59
2023/06/04 06:24:08;;;;;;;2.60;1.13;;;;;;;24.55;50.00;99601.09;5158108;27;20343;-54
2023/06/04 06:26:34;;;;;;;2.67;1.20;;;;;;;24.64;50.17;99604.00;5158171;27;20054;-55
2023/06/04 06:29:00;;;;;;;2.60;1.13;;;;;;;25.06;49.83;99603.81;5157742;27;20063;-59
2023/06/04 06:31:27;;;;;;;2.20;1.10;;;;;;;24.64;50.09;99598.41;5158156;27;20062;-65
2023/06/04 06:33:53;;;;;;;2.42;1.10;;;;;;;24.94;49.88;99596.22;5157544;27;20130;-61
2023/06/04 06:36:19;;;;;;;2.58;0.88;;;;;;;25.03;49.36;99597.09;5157820;27;20290;-65
2023/06/04 06:38:46;;;;;;;1.83;1.10;;;;;;;25.22;48.64;99600.84;5157935;27;20297;-63
2023/06/04 06:41:12;;;;;;;3.72;1.10;;;;;;;24.87;49.15;99592.41;5157752;27;20129;-59
2023/06/04 06:43:38;;;;;;;3.38;1.20;;;;;;;24.79;48.42;99585.50;5157646;27;20356;-64
2023/06/04 06:46:04;;;;;;;4.55;1.50;;;;;;;25.16;48.02;99585.84;5157537;27;20088;-59
2023/06/04 06:48:30;;;;;;;1.52;1.15;;;;;;;25.22;48.32;99591.66;5157885;27;20331;-54
2023/06/04 06:50:56;;;;;;;1.85;0.90;;;;;;;25.21;48.85;99601.31;5161100;27;20154;-54
2023/06/04 06:53:22;;;;;;;3.15;0.82;;;;;;;25.52;47.03;99592.97;5161541;27;20070;-59
2023/06/04 06:55:48;;;;;;;2.83;1.42;;;;;;;25.77;47.16;99592.84;5160969;27;20416;-59
2023/06/04 06:58:15;;;;;;;5.50;0.80;;;;;;;25.67;46.80;99590.44;5161468;27;20081;-62
2023/06/04 07:00:41;;;;;;;4.47;3.38;;;;;;;24.62;47.24;99589.66;5160939;27;20051;-59
2023/06/04 07:03:08;;;;;;;1.98;0.90;;;;;;;23.22;48.99;99587.34;5161420;27;20396;-62
2023/06/04 07:05:34;;;;;;;2.92;1.10;;;;;;;23.65;49.12;99584.16;5160921;27;20138;-59
2023/06/04 07:08:00;;;;;;;1.90;0.90;;;;;;;23.18;49.92;99581.09;5161098;27;20086;-64
2023/06/04 07:10:27;;;;;;;2.30;1.30;;;;;;;22.98;50.43;99589.59;5161074;27;20320;-59
2023/06/04 07:12:53;;;;;;;3.72;1.10;;;;;;;22.81;51.09;99585.22;5160808;27;20051;-63
2023/06/04 07:15:19;;;;;;;2.17;1.30;;;;;;;23.41;50.74;99580.84;5161219;27;20064;-63
2023/06/04 07:17:45;;;;;;;2.50;1.10;;;;;;;23.42;51.34;99574.00;5160893;27;20055;-61
2023/06/04 07:20:11;;;;;;;3.97;0.90;;;;;;;22.83;50.08;99585.59;5161178;27;20167;-56
2023/06/04 07:22:38;;;;;;;3.15;0.90;;;;;;;22.27;50.61;99584.50;5160606;27;20058;-55
2023/06/04 07:25:05;;;;;;;1.27;0.80;;;;;;;21.72;50.72;99580.50;5161056;27;20426;-65
2023/06/04 07:27:34;;;;;;;1.25;0.90;;;;;;;21.25;51.26;99579.81;5160462;27;20424;-56
2023/06/04 07:30:00;;;;;;;0.80;0.80;;;;;;;21.14;51.63;99572.44;5160967;27;20051;-59
2023/06/04 07:32:26;;;;;;;5.03;1.00;;;;;;;20.67;51.83;99571.69;5160414;27;20099;-64
2023/06/04 07:34:51;;;;;;;1.13;0.90;;;;;;;21.14;51.81;99575.22;5160708;27;20050;-63
2023/06/04 07:37:17;;;;;;;2.42;0.90;;;;;;;22.29;50.47;99573.69;5160616;27;20047;-59
2023/06/04 07:39:43;;;;;;;0.70;0.70;;;;;;;22.05;50.44;99566.63;5160544;27;20160;-56
2023/06/04 07:42:09;;;;;;;3.22;0.80;;;;;;;21.04;51.56;99565.06;5160567;27;20394;-53
2023/06/04 07:44:37;;;;;;;2.30;0.75;;;;;;;20.09;52.32;99574.56;5160442;27;20042;-55
2023/06/04 07:47:03;;;;;;;1.00;0.70;;;;;;;20.45;51.28;99571.22;5160768;27;20050;-61
2023/06/04 07:49:29;;;;;;;1.30;0.70;;;;;;;20.91;51.71;99576.03;5160222;27;20056;-59
2023/06/04 07:51:55;;;;;;;4.93;0.68;;;;;;;20.57;51.72;99567.09;5160658;27;20145;-56
2023/06/04 07:54:21;;;;;;;1.75;0.80;;;;;;;20.38;51.80;99569.34;5160188;27;20078;-53
2023/06/04 07:56:47;;;;;;;3.00;0.80;;;;;;;20.18;52.97;99577.59;5160510;27;20424;-58
2023/06/04 07:59:13;;;;;;;0.68;0.60;;;;;;;19.68;53.75;99571.91;5159659;27;20086;-58
2023/06/04 08:01:40;;;;;;;3.20;0.82;;;;;;;20.06;54.33;99575.41;5160710;27;20047;-53
2023/06/04 08:04:05;;;;;;;1.33;0.60;;;;;;;19.86;54.02;99563.31;5160605;27;20327;-57
2023/06/04 08:06:31;;;;;;;0.65;0.60;;;;;;;19.67;54.89;99573.91;5160783;27;20078;-57
2023/06/04 08:08:57;;;;;;;3.40;0.60;;;;;;;19.14;55.11;99572.50;5159957;27;20058;-56
2023/06/04 08:11:24;;;;;;;1.35;1.00;;;;;;;20.87;52.54;99572.53;5160433;27;20050;-56
2023/06/04 08:13:50;;;;;;;1.75;0.70;;;;;;;22.14;50.76;99572.41;5159915;27;20061;-61
2023/06/04 08:16:16;;;;;;;3.50;0.70;;;;;;;22.57;49.65;99576.25;5159825;27;20050;-61
2023/06/04 08:18:43;;;;;;;5.63;0.93;;;;;;;22.24;48.60;99565.81;5160368;27;20089;-55
2023/06/04 08:21:10;;;;;;;4.32;0.90;;;;;;;21.60;49.76;99576.38;5159845;27;20043;-60
2023/06/04 08:23:36;;;;;;;0.65;0.65;;;;;;;21.30;50.23;99579.34;5160169;27;20058;-56
2023/06/04 08:26:02;;;;;;;1.65;1.00;;;;;;;22.27;49.93;99580.94;5159412;27;20046;-63
2023/06/04 08:28:28;;;;;;;2.08;1.20;;;;;;;23.40;49.01;99565.28;5159841;27;20144;-63
2023/06/04 08:30:54;;;;;;;2.80;0.80;;;;;;;23.40;48.59;99562.50;5159530;27;20149;-65
2023/06/04 08:33:20;;;;;;;1.63;0.90;;;;;;;22.79;49.08;99572.47;5159692;27;20058;-64
2023/06/04 08:35:47;;;;;;;5.18;0.90;;;;;;;22.28;49.54;99577.69;5159716;27;20184;-58
2023/06/04 08:38:13;;;;;;;2.97;0.90;;;;;;;21.44;50.03;99567.94;5159560;27;20054;-62
2023/06/04 08:40:39;;;;;;;0.75;0.75;;;;;;;21.84;51.12;99565.88;5159541;27;20443;-58
2023/06/04 08:43:05;;;;;;;0.70;0.70;;;;;;;22.98;49.71;99564.44;5159485;27;20051;-61
2023/06/04 08:45:33;;;;;;;5.00;1.00;;;;;;;22.67;49.04;99564.00;5159577;27;20146;-64
2023/06/04 08:48:00;;;;;;;1.00;1.00;;;;;;;22.49;49.24;99556.06;5159223;27;20057;-56
2023/06/04 08:50:26;;;;;;;1.80;1.10;;;;;;;21.61;50.76;99563.97;5159491;27;20145;-59
2023/06/04 08:52:55;;;;;;;2.58;1.10;;;;;;;22.80;49.93;99564.88;5159300;27;20395;-61
2023/06/04 08:55:22;;;;;;;2.53;1.05;;;;;;;23.09;49.37;99561.34;5159598;27;20145;-56
2023/06/04 08:57:50;;;;;;;10.20;1.20;;;;;;;23.76;48.63;99561.50;5159038;27;20043;-58
2023/06/04 09:00:16;;;;;;;4.13;1.15;;;;;;;24.32;47.35;99560.16;5158985;27;20054;-60
2023/06/04 09:02:43;;;;;;;3.67;1.13;;;;;;;24.57;45.95;99554.56;5159286;27;20047;-64
2023/06/04 09:05:10;;;;;;;2.10;0.85;;;;;;;24.73;46.76;99555.66;5159233;27;20134;-55
2023/06/04 09:07:38;;;;;;;1.42;1.10;;;;;;;24.75;46.52;99553.19;5159570;27;20054;-54
2023/06/04 09:10:08;;;;;;;1.95;1.27;;;;;;;25.46;45.79;99561.94;5159070;27;20145;-55
2023/06/04 09:12:36;;;;;;;2.95;0.95;;;;;;;25.77;45.01;99553.53;5158168;27;20404;-63
2023/06/04 09:15:02;;;;;;;1.42;0.80;;;;;;;25.87;45.36;99557.22;5158861;27;20051;-56
2023/06/04 09:17:28;;;;;;;2.20;0.90;;;;;;;25.92;45.26;99553.78;5159025;27;20129;-64
2023/06/04 09:19:54;;;;;;;2.60;0.77;;;;;;;25.05;45.49;99549.72;5158754;27;20086;-65
2023/06/04 09:22:31;;;;;;;2.33;0.90;;;;;;;24.04;47.12;99545.06;5159008;27;20074;-63
2023/06/04 09:24:57;;;;;;;1.00;1.00;;;;;;;23.69;48.35;99547.69;5158538;27;20420;-55
2023/06/04 09:27:25;;;;;;;4.20;0.93;;;;;;;23.97;48.48;99562.06;5158766;27;20072;-54
2023/06/04 09:29:52;;;;;;;1.42;1.20;;;;;;;24.80;46.59;99553.41;5158991;27;20046;-54
2023/06/04 09:32:21;;;;;;;3.00;1.10;;;;;;;24.82;45.85;99547.31;5158528;27;20137;-54
2023/06/04 09:34:47;;;;;;;1.48;1.08;;;;;;;25.29;46.37;99550.13;5158678;27;20365;-64
2023/06/04 09:37:15;;;;;;;3.40;0.93;;;;;;;25.24;46.31;99561.13;5158515;27;20054;-64
2023/06/04 09:39:42;;;;;;;1.15;0.93;;;;;;;23.88;46.83;99559.94;5158952;27;20406;-56
2023/06/04 09:42:09;;;;;;;1.90;1.02;;;;;;;22.52;48.03;99555.19;5158441;27;20119;-53
2023/06/04 09:44:44;;;;;;;3.55;0.98;;;;;;;21.63;49.79;99554.41;5158666;27;20089;-63
2023/06/04 09:47:10;;;;;;;2.70;1.15;;;;;;;21.54;49.30;99554.97;5158415;27;20047;-56
2023/06/04 09:49:41;;;;;;;2.50;1.05;;;;;;;21.52;50.02;99554.63;5158667;27;20367;-56
2023/06/04 09:52:07;;;;;;;1.05;0.77;;;;;;;20.72;51.18;99553.69;5158621;27;20058;-58
2023/06/04 09:54:36;;;;;;;4.38;0.88;;;;;;;20.55;51.43;99550.78;5158417;27;20058;-55
2023/06/04 09:57:04;;;;;;;1.85;0.90;;;;;;;20.07;52.01;99540.78;5158586;27;20062;-62
2023/06/04 09:59:32;;;;;;;1.75;0.80;;;;;;;20.33;52.44;99547.56;5158335;27;20066;-65
2023/06/04 10:01:59;;;;;;;2.47;0.80;;;;;;;21.28;51.68;99542.72;5158387;27;20311;-54
2023/06/04 10:04:27;;;;;;;2.10;0.80;;;;;;;21.32;51.39;99547.00;5158243;27;20061;-55
2023/06/04 10:06:53;;;;;;;2.85;1.17;;;;;;;21.14;51.09;99543.78;5158498;27;20133;-62
2023/06/04 10:09:22;;;;;;;2.30;1.10;;;;;;;21.24;50.61;99540.00;5157937;27;20332;-54
2023/06/04 10:11:53;;;;;;;1.27;0.93;;;;;;;20.83;50.97;99530.03;5158413;27;20133;-55
2023/06/04 10:14:22;;;;;;;0.70;0.70;;;;;;;20.76;51.20;99534.91;5158028;27;20087;-63
2023/06/04 10:16:50;;;;;;;2.85;0.80;;;;;;;20.54;52.23;99537.31;5157958;27;20046;-63
2023/06/04 10:19:17;;;;;;;0.80;0.80;;;;;;;20.15;53.44;99530.31;5158498;27;20075;-58
2023/06/04 10:21:43;;;;;;;0.95;0.95;;;;;;;21.12;52.05;99535.84;5158117;27;20042;-64
2023/06/04 10:24:09;;;;;;;4.78;1.00;;;;;;;22.12;50.20;99532.97;5164322;27;20043;-63
2023/06/04 10:26:37;;;;;;;3.55;0.98;;;;;;;23.06;48.98;99521.09;5165011;27;20050;-59
2023/06/04 10:29:05;;;;;;;2.55;1.08;;;;;;;23.33;47.13;99525.53;5165515;27;20416;-61
2023/06/04 10:31:32;;;;;;;1.20;0.90;;;;;;;23.28;47.28;99526.06;5165337;27;20051;-56
2023/06/04 10:33:58;;;;;;;4.68;0.95;;;;;;;24.02;46.17;99516.69;5165363;27;20319;-55
2023/06/04 10:36:25;;;;;;;2.25;0.93;;;;;;;23.14;47.08;99521.66;5164650;27;20431;-61
2023/06/04 10:38:53;;;;;;;2.70;0.98;;;;;;;23.88;46.43;99510.31;5164749;27;20051;-56
2023/06/04 10:41:21;;;;;;;2.42;1.10;;;;;;;24.43;46.18;99518.63;5164592;27;20479;-55
2023/06/04 10:43:49;;;;;;;2.35;1.02;;;;;;;24.52;46.42;99512.31;5164767;27;20042;-61
2023/06/04 10:46:16;;;;;;;2.47;0.93;;;;;;;24.46;46.38;99508.50;5164552;27;20411;-62
2023/06/04 10:48:49;;;;;;;2.90;1.20;;;;;;;24.56;46.42;99501.78;5164526;27;20133;-58
2023/06/04 10:51:15;;;;;;;2.53;0.75;;;;;;;23.83;47.04;99498.91;5164639;27;20513;-61
2023/06/04 10:53:42;;;;;;;1.42;0.90;;;;;;;22.79;47.46;99507.38;5164384;27;20328;-58
2023/06/04 10:56:08;;;;;;;3.90;1.17;;;;;;;22.77;46.94;99507.06;5164579;27;20058;-53
2023/06/04 10:58:34;;;;;;;1.90;1.15;;;;;;;21.60;48.31;99501.03;5164753;27;20051;-54
2023/06/04 11:01:00;;;;;;;1.90;0.93;;;;;;;22.31;48.09;99509.78;5164727;27;20149;-63
2023/06/04 11:03:36;;;;;;;1.20;0.90;;;;;;;21.83;48.77;99505.72;5164297;27;20385;-56
2023/06/04 11:06:02;;;;;;;1.67;1.00;;;;;;;21.79;49.09;99501.41;5164643;27;20047;-52
2023/06/04 11:08:29;;;;;;;6.03;1.00;;;;;;;21.63;50.29;99507.00;5164382;27;20085;-58
2023/06/04 11:10:56;;;;;;;1.25;0.80;;;;;;;21.23;50.13;99509.78;5164316;27;20145;-63
2023/06/04 11:13:24;;;;;;;2.50;1.20;;;;;;;21.50;49.58;99504.84;5164487;27;20058;-62
2023/06/04 11:15:50;;;;;;;5.22;1.10;;;;;;;21.56;49.56;99503.13;5164112;27;20481;-60
2023/06/04 11:18:17;;;;;;;2.35;0.82;;;;;;;21.31;49.95;99502.81;5164432;27;20096;-58
2023/06/04 11:20:44;;;;;;;2.67;1.10;;;;;;;21.28;50.54;99495.31;5164236;27;20077;-60
2023/06/04 11:23:12;;;;;;;2.25;1.10;;;;;;;20.98;51.10;99497.09;5164507;27;20047;-56
2023/06/04 11:25:38;;;;;;;3.97;0.93;;;;;;;20.83;50.30;99498.59;5164001;27;20042;-58
2023/06/04 11:28:05;;;;;;;1.70;0.80;;;;;;;21.05;50.21;99488.59;5164444;27;20047;-53
2023/06/04 11:30:31;;;;;;;2.63;0.80;;;;;;;20.36;51.87;99498.56;5163964;27;20050;-60